Saltillo, PA

10:57 AM EST on March 02, 2015 (GMT -0500)
Hagerstown Regional-Henson | Change Station
CLOSE
Current Station
Airport
Location: Hagerstown,
Elevation: 705 ft
Nearby Weather Stations
Active Advisory: Special Statement Active Notice: Public Information Statement

Elev 705 ft 39.71 °N, 77.73 °W | Updated 4 minutes ago

Overcast
Overcast
35 °F
Feels Like 23 °F
N
25
Wind Variable Wind from NW
Gusts 33 mph

Today
High -- | Low -- °F
--% Chance of Precip.
Yesterday
High -- | Low -- °F
Precip. -- in
6:44 AM 6:04 PM
Waxing Gibbous, 92% visible
Pressure 30.32 in
Visibility 10.0 miles
Clouds Clear
Windchill 23 °F
Dew Point 17 °F
Humidity 48%
Rainfall 0.00 in
Snow Depth Not available.
UV 5 out of 12
Pollen .50 out of 12
Air Quality Not available.
Flu Activity Not available.
METAR KHGR 021553Z 31022G29KT 10SM CLR 02/M08 A3027 RMK AO2 PK WND 31030/1510 SLP267 T00171083

More Conditions Fewer Conditions

Pressure 30.32 in
Visibility 10.0 miles
Clouds Clear
Windchill 23 °F
Dew Point 17 °F
Humidity 48%
Rainfall 0.00 in
Snow Depth Not available.
UV 5 out of 12
Pollen .50 out of 12
Air Quality Not available.
Flu Activity Not available.
METAR KHGR 021553Z 31022G29KT 10SM CLR 02/M08 A3027 RMK AO2 PK WND 31030/1510 SLP267 T00171083

More Conditions Fewer Conditions

10-Day Weather Forecast

Almanac

Astronomy

Mar. 02, 2015 Rise Set
Actual Time
Civil Twilight
Nautical Twilight
Astronomical Twilight
Moon
Length of Visible Light
Length of Day
Tomorrow will be .
, % of the Moon is Illuminated

Today's Extremes

State Highs State Lows

Community

WunderPhotos

Upload Photos

1,801,823 photos uploaded!

WunderBlogs® & News

Nearby

Air Quality

  Air Quality AQ Index Pollutant
Not available.

Snow Depth

Station Depth Elevation

Earthquake Activity

City Distance Mag. Time & Date
Minimum magnitude displayed is 2.5.

Coastal Water Temperatures

Place Temperature

Nearby Weather Stations

Special Statement
Statement as of 6:47 AM EST on March 02, 2015

... Windy and colder conditions will create areas of blowing snow
and icy roads this morning...

A cold front pushing across the Susquehanna valley early today
will be followed by colder air and a gusty northwest wind... with
flurries and scattered mountains snow showers.

The wind... gusting between 20 and 30 mph... will blow around the
fresh snow cover and cause portions of untreated roads to be snow
and ice covered.

Use extra caution during your morning commute to work and school.
Allow plenty of extra time to clear the ice and snow off your
vehicle in order to reach your destination safely.


Lambert